Time;durP1;ratioP1;P1;durP2;ratioP2;P2;SDS_P1;SDS_P2;PMS_P1;PMS_P2;Temp;Humidity;BMP_temperature;BMP_pressure;BME280_temperature;BME280_humidity;BME280_pressure;Samples;Min_cycle;Max_cycle;Signal;HPM_P1;HPM_P2
2023/08/26 00:02:19;;;;;;;5.85;1.98;;;;;;;;;;4954354;29;20490;-81
2023/08/26 00:04:50;;;;;;;5.72;1.77;;;;;;;;;;4939014;29;20421;-80
2023/08/26 00:07:24;;;;;;;6.18;1.65;;;;;;;;;;4957398;29;20055;-79
2023/08/26 00:09:55;;;;;;;3.47;1.25;;;;;;;;;;4956688;29;20051;-81
2023/08/26 00:12:25;;;;;;;4.40;1.17;;;;;;;;;;4954431;29;20043;-80
2023/08/26 00:14:56;;;;;;;4.40;1.40;;;;;;;;;;4934906;29;20043;-80
2023/08/26 00:17:27;;;;;;;2.72;0.80;;;;;;;;;;4950846;29;20066;-80
2023/08/26 00:19:58;;;;;;;6.80;1.10;;;;;;;;;;4918856;29;20048;-80
2023/08/26 00:22:29;;;;;;;1.73;0.77;;;;;;;;;;4935560;29;20422;-79
2023/08/26 00:25:03;;;;;;;2.38;0.95;;;;;;;;;;4918358;29;20047;-79
2023/08/26 00:27:34;;;;;;;3.13;1.20;;;;;;;;;;4918802;29;20507;-80
2023/08/26 00:30:08;;;;;;;4.88;1.13;;;;;;;;;;4947846;29;20128;-79
2023/08/26 00:32:38;;;;;;;5.30;1.08;;;;;;;;;;4927457;29;20044;-81
2023/08/26 00:35:11;;;;;;;4.03;0.80;;;;;;;;;;4944478;29;20040;-79
2023/08/26 00:37:46;;;;;;;4.15;0.80;;;;;;;;;;4946867;29;20047;-79
2023/08/26 00:40:20;;;;;;;2.58;0.80;;;;;;;;;;4937372;29;20047;-81
2023/08/26 00:42:54;;;;;;;2.20;0.55;;;;;;;;;;4949256;29;20040;-81
2023/08/26 00:45:25;;;;;;;2.03;0.82;;;;;;;;;;4944628;29;20047;-80
2023/08/26 00:47:57;;;;;;;2.95;0.73;;;;;;;;;;4910720;29;20055;-79
2023/08/26 00:50:32;;;;;;;2.30;0.50;;;;;;;;;;4928264;29;20067;-80
2023/08/26 00:53:03;;;;;;;2.10;0.70;;;;;;;;;;4945524;29;20043;-80
2023/08/26 00:55:36;;;;;;;2.03;0.70;;;;;;;;;;4944760;28;20039;-80
2023/08/26 00:58:06;;;;;;;;;;;;;;;;;;4926739;29;20384;-81
2023/08/26 01:00:39;;;;;;;4.35;1.05;;;;;;;;;;4913372;29;19923;-79
2023/08/26 01:03:10;;;;;;;2.08;0.60;;;;;;;;;;4929710;29;20495;-78
2023/08/26 01:05:41;;;;;;;2.78;0.60;;;;;;;;;;4938171;29;20047;-79
2023/08/26 01:08:14;;;;;;;2.47;0.68;;;;;;;;;;4954697;29;20043;-80
2023/08/26 01:10:49;;;;;;;1.13;0.52;;;;;;;;;;4936665;29;20047;-79
2023/08/26 01:13:26;;;;;;;3.15;0.77;;;;;;;;;;4954317;29;20047;-78
2023/08/26 01:15:58;;;;;;;;;;;;;;;;;;4955173;29;20047;-79
2023/08/26 01:18:32;;;;;;;2.53;0.80;;;;;;;;;;4936641;29;19938;-78
2023/08/26 01:21:06;;;;;;;2.55;0.52;;;;;;;;;;4920973;29;20059;-79
2023/08/26 01:23:45;;;;;;;4.78;0.90;;;;;;;;;;4936270;29;20055;-79
2023/08/26 01:26:17;;;;;;;2.97;0.93;;;;;;;;;;4936598;29;20414;-78
2023/08/26 01:28:48;;;;;;;2.00;0.80;;;;;;;;;;4921400;29;20510;-78
2023/08/26 01:31:24;;;;;;;2.85;0.80;;;;;;;;;;4932546;29;20103;-78
2023/08/26 01:33:58;;;;;;;2.88;0.60;;;;;;;;;;4935060;29;20043;-79
2023/08/26 01:36:31;;;;;;;3.92;0.57;;;;;;;;;;4918368;29;20452;-80
2023/08/26 01:39:03;;;;;;;4.68;0.70;;;;;;;;;;4917778;29;20495;-79
2023/08/26 01:41:38;;;;;;;1.40;0.30;;;;;;;;;;4934983;29;20051;-79
2023/08/26 01:44:13;;;;;;;3.67;0.68;;;;;;;;;;4935086;29;20043;-79
2023/08/26 01:46:45;;;;;;;1.45;0.60;;;;;;;;;;4917101;29;20067;-79
2023/08/26 01:49:19;;;;;;;1.45;0.60;;;;;;;;;;4917319;29;20059;-78
2023/08/26 01:51:50;;;;;;;2.38;0.70;;;;;;;;;;4918285;29;20055;-79
2023/08/26 01:54:21;;;;;;;5.50;0.65;;;;;;;;;;4918283;29;20388;-79
2023/08/26 01:56:51;;;;;;;5.30;1.27;;;;;;;;;;4917415;29;20055;-79
2023/08/26 01:59:22;;;;;;;3.05;0.73;;;;;;;;;;4917150;29;20047;-80
2023/08/26 02:01:53;;;;;;;1.88;0.68;;;;;;;;;;4924929;29;20071;-80
2023/08/26 02:04:25;;;;;;;2.00;0.65;;;;;;;;;;4936604;29;20051;-79
2023/08/26 02:06:56;;;;;;;1.52;0.63;;;;;;;;;;4954836;28;20077;-80
2023/08/26 02:09:27;;;;;;;2.95;0.50;;;;;;;;;;4940413;29;20051;-80
2023/08/26 02:12:01;;;;;;;3.13;0.50;;;;;;;;;;4940194;29;20071;-80
2023/08/26 02:14:33;;;;;;;1.30;0.50;;;;;;;;;;4939872;29;20062;-79
2023/08/26 02:17:04;;;;;;;0.90;0.47;;;;;;;;;;4957841;29;20051;-79
2023/08/26 02:19:35;;;;;;;1.65;0.60;;;;;;;;;;4957447;29;20055;-80
2023/08/26 02:22:09;;;;;;;1.52;0.38;;;;;;;;;;4940388;29;20473;-76
2023/08/26 02:24:44;;;;;;;2.45;0.43;;;;;;;;;;4940313;29;20055;-81
2023/08/26 02:27:15;;;;;;;0.57;0.22;;;;;;;;;;4939401;29;20058;-80
2023/08/26 02:29:46;;;;;;;4.97;0.65;;;;;;;;;;4957559;29;20078;-79
2023/08/26 02:32:20;;;;;;;0.80;0.30;;;;;;;;;;4928461;29;20066;-79
2023/08/26 02:34:51;;;;;;;1.83;0.68;;;;;;;;;;4921654;29;20047;-78
2023/08/26 02:37:23;;;;;;;11.10;0.88;;;;;;;;;;4937955;29;20047;-78
2023/08/26 02:39:56;;;;;;;1.75;0.68;;;;;;;;;;4938632;29;20047;-81
2023/08/26 02:42:29;;;;;;;2.55;0.75;;;;;;;;;;4938048;29;20048;-81
2023/08/26 02:45:03;;;;;;;4.75;0.95;;;;;;;;;;4922533;29;20047;-80
2023/08/26 02:47:37;;;;;;;3.58;0.90;;;;;;;;;;4940138;29;20399;-80
2023/08/26 02:50:07;;;;;;;3.38;0.63;;;;;;;;;;4927152;29;20056;-79
2023/08/26 02:52:43;;;;;;;2.47;1.45;;;;;;;;;;4941574;29;20048;-79
2023/08/26 02:55:15;;;;;;;6.18;0.73;;;;;;;;;;4960006;29;20036;-78
2023/08/26 02:57:46;;;;;;;2.00;0.52;;;;;;;;;;4948197;29;20048;-80
2023/08/26 03:00:18;;;;;;;2.63;0.70;;;;;;;;;;4905515;29;20514;-80
2023/08/26 03:02:55;;;;;;;2.40;0.90;;;;;;;;;;4920092;29;20047;-80
2023/08/26 03:05:28;;;;;;;3.28;0.80;;;;;;;;;;4919818;29;20056;-79
2023/08/26 03:07:58;;;;;;;4.78;0.70;;;;;;;;;;4921086;29;20044;-79
2023/08/26 03:10:32;;;;;;;2.20;0.60;;;;;;;;;;4936979;29;20052;-79
2023/08/26 03:13:06;;;;;;;6.20;1.02;;;;;;;;;;4920143;29;20043;-81
2023/08/26 03:15:38;;;;;;;4.53;1.10;;;;;;;;;;4937422;29;20487;-79
2023/08/26 03:18:09;;;;;;;4.18;1.10;;;;;;;;;;4937132;29;20487;-78
2023/08/26 03:20:40;;;;;;;1.67;0.70;;;;;;;;;;4936860;29;20048;-80
2023/08/26 03:23:11;;;;;;;3.85;1.13;;;;;;;;;;4920003;29;20406;-79
2023/08/26 03:25:45;;;;;;;2.70;0.80;;;;;;;;;;4919841;29;20060;-80
2023/08/26 03:28:15;;;;;;;3.40;0.85;;;;;;;;;;4919563;29;20157;-80
2023/08/26 03:30:46;;;;;;;4.90;1.08;;;;;;;;;;4919425;29;20055;-79
2023/08/26 03:33:18;;;;;;;4.13;1.00;;;;;;;;;;4922058;29;20407;-78
2023/08/26 03:35:50;;;;;;;4.60;0.40;;;;;;;;;;4955417;29;20039;-79
2023/08/26 03:38:26;;;;;;;4.00;1.25;;;;;;;;;;4937698;29;20062;-79
2023/08/26 03:41:07;;;;;;;3.85;1.00;;;;;;;;;;4955888;29;20070;-78
2023/08/26 03:43:40;;;;;;;2.22;0.73;;;;;;;;;;4938609;29;20154;-79
2023/08/26 03:46:11;;;;;;;4.30;0.95;;;;;;;;;;4957338;29;20352;-78
2023/08/26 03:48:41;;;;;;;4.38;1.15;;;;;;;;;;4956963;29;20051;-79
2023/08/26 03:51:13;;;;;;;3.88;1.10;;;;;;;;;;4956962;29;20062;-78
2023/08/26 03:53:47;;;;;;;3.70;1.17;;;;;;;;;;4939059;29;20047;-79
2023/08/26 03:56:19;;;;;;;2.30;0.93;;;;;;;;;;4956672;29;20046;-79
2023/08/26 03:58:56;;;;;;;3.53;0.90;;;;;;;;;;4956879;29;20506;-78
2023/08/26 04:01:29;;;;;;;3.20;1.13;;;;;;;;;;4924059;29;20058;-80
2023/08/26 04:04:02;;;;;;;4.45;0.90;;;;;;;;;;4938450;29;20066;-78
2023/08/26 04:06:33;;;;;;;3.28;1.38;;;;;;;;;;4956667;29;20048;-78
2023/08/26 04:09:04;;;;;;;5.30;1.27;;;;;;;;;;4938622;29;20055;-79
2023/08/26 04:11:35;;;;;;;3.85;1.27;;;;;;;;;;4939295;29;20058;-78
2023/08/26 04:14:08;;;;;;;1.83;1.35;;;;;;;;;;4938437;29;20055;-78
2023/08/26 04:16:38;;;;;;;3.58;1.30;;;;;;;;;;4938432;29;20047;-77
2023/08/26 04:19:08;;;;;;;5.43;1.10;;;;;;;;;;4956156;29;20039;-78
2023/08/26 04:21:44;;;;;;;3.33;1.02;;;;;;;;;;4938423;29;20055;-78
2023/08/26 04:24:15;;;;;;;2.22;1.05;;;;;;;;;;4938305;29;20066;-78
2023/08/26 04:26:45;;;;;;;3.78;1.20;;;;;;;;;;4956506;29;20047;-78
2023/08/26 04:29:19;;;;;;;3.65;1.45;;;;;;;;;;4937492;28;20059;-76
2023/08/26 04:31:50;;;;;;;2.15;0.90;;;;;;;;;;4938061;29;20047;-77
2023/08/26 04:34:25;;;;;;;2.83;1.13;;;;;;;;;;4922765;29;20070;-77
2023/08/26 04:36:57;;;;;;;4.32;1.80;;;;;;;;;;4938353;29;20525;-76
2023/08/26 04:39:27;;;;;;;5.85;1.52;;;;;;;;;;4937820;29;20078;-78
2023/08/26 04:41:57;;;;;;;3.55;1.02;;;;;;;;;;4955643;29;20047;-77
2023/08/26 04:44:28;;;;;;;5.90;1.20;;;;;;;;;;4955614;29;20055;-77
2023/08/26 04:46:58;;;;;;;3.38;1.38;;;;;;;;;;4937500;29;20062;-76
2023/08/26 04:49:29;;;;;;;4.03;0.90;;;;;;;;;;4955712;29;20051;-76
2023/08/26 04:52:00;;;;;;;3.22;1.10;;;;;;;;;;4937910;29;20062;-76
2023/08/26 04:54:34;;;;;;;4.18;1.10;;;;;;;;;;4955544;29;20395;-77
2023/08/26 04:57:05;;;;;;;;;;;;;;;;;;4938784;29;20051;-78
2023/08/26 04:59:37;;;;;;;4.03;1.27;;;;;;;;;;4955702;29;19937;-77
2023/08/26 05:02:08;;;;;;;6.15;1.48;;;;;;;;;;4937670;29;20043;-76
2023/08/26 05:04:40;;;;;;;5.75;1.50;;;;;;;;;;4955683;29;20051;-77
2023/08/26 05:07:13;;;;;;;5.53;1.77;;;;;;;;;;4937416;29;20047;-76
2023/08/26 05:09:44;;;;;;;6.20;1.75;;;;;;;;;;4937556;29;20051;-77
2023/08/26 05:12:15;;;;;;;3.92;1.40;;;;;;;;;;4955831;29;20047;-77
2023/08/26 05:14:48;;;;;;;4.00;1.20;;;;;;;;;;4922513;29;20066;-76
2023/08/26 05:17:20;;;;;;;4.18;1.38;;;;;;;;;;4955221;29;20047;-78
2023/08/26 05:19:51;;;;;;;5.70;1.13;;;;;;;;;;4937272;29;20055;-78
2023/08/26 05:22:23;;;;;;;3.38;1.02;;;;;;;;;;4937310;29;20055;-78
2023/08/26 05:24:55;;;;;;;2.63;1.08;;;;;;;;;;4955457;29;20394;-79
2023/08/26 05:27:28;;;;;;;3.42;1.08;;;;;;;;;;4930920;29;20051;-79
2023/08/26 05:29:58;;;;;;;4.57;1.30;;;;;;;;;;4917440;29;20058;-78
2023/08/26 05:32:34;;;;;;;2.65;1.08;;;;;;;;;;4917889;29;20047;-79
2023/08/26 05:35:07;;;;;;;3.78;1.20;;;;;;;;;;4918463;29;20437;-79
2023/08/26 05:37:44;;;;;;;3.28;1.33;;;;;;;;;;4903234;29;20053;-78
2023/08/26 05:40:21;;;;;;;2.55;1.00;;;;;;;;;;4903609;29;20052;-78
2023/08/26 05:42:54;;;;;;;3.70;1.02;;;;;;;;;;4918131;29;20120;-78
2023/08/26 05:45:28;;;;;;;4.82;1.08;;;;;;;;;;4918072;29;20503;-79
2023/08/26 05:48:00;;;;;;;2.67;1.20;;;;;;;;;;4918452;29;20066;-78
2023/08/26 05:50:31;;;;;;;3.92;1.27;;;;;;;;;;4903243;29;20078;-79
2023/08/26 05:53:05;;;;;;;3.38;1.40;;;;;;;;;;4919633;29;20047;-78
2023/08/26 05:55:40;;;;;;;3.15;1.42;;;;;;;;;;4918303;29;20160;-79
2023/08/26 05:58:11;;;;;;;3.58;1.50;;;;;;;;;;4917492;29;20052;-78
2023/08/26 06:00:44;;;;;;;4.25;1.38;;;;;;;;;;4917932;29;20056;-78
2023/08/26 06:03:18;;;;;;;4.18;1.50;;;;;;;;;;4935466;29;20048;-78
2023/08/26 06:05:52;;;;;;;4.47;1.80;;;;;;;;;;4917823;29;20052;-79
2023/08/26 06:08:24;;;;;;;5.28;1.48;;;;;;;;;;4918430;29;20063;-77
2023/08/26 06:10:56;;;;;;;2.83;1.23;;;;;;;;;;4918307;29;20055;-78
2023/08/26 06:13:26;;;;;;;3.22;1.20;;;;;;;;;;4917483;29;20052;-77
2023/08/26 06:16:00;;;;;;;4.43;1.48;;;;;;;;;;4917768;29;20059;-78
2023/08/26 06:18:32;;;;;;;5.80;1.30;;;;;;;;;;4935523;29;20047;-77
2023/08/26 06:21:03;;;;;;;4.13;1.40;;;;;;;;;;4935591;29;20048;-77
2023/08/26 06:23:33;;;;;;;3.92;1.33;;;;;;;;;;4935768;29;20071;-76
2023/08/26 06:26:03;;;;;;;4.47;1.83;;;;;;;;;;4935836;29;20043;-76
2023/08/26 06:28:39;;;;;;;6.20;1.60;;;;;;;;;;4917920;29;20058;-77
2023/08/26 06:31:10;;;;;;;5.72;1.80;;;;;;;;;;4917623;29;20407;-77
2023/08/26 06:33:44;;;;;;;4.55;1.30;;;;;;;;;;4917592;29;20052;-77
2023/08/26 06:36:22;;;;;;;4.20;1.50;;;;;;;;;;4917801;29;20066;-78
2023/08/26 06:38:55;;;;;;;6.40;1.70;;;;;;;;;;4917985;29;20503;-77
2023/08/26 06:41:27;;;;;;;3.88;1.63;;;;;;;;;;4917569;29;20062;-77
2023/08/26 06:43:59;;;;;;;3.67;1.60;;;;;;;;;;4916995;29;20071;-78
2023/08/26 06:46:34;;;;;;;5.47;1.55;;;;;;;;;;4917536;29;20415;-78
2023/08/26 06:49:06;;;;;;;5.57;1.48;;;;;;;;;;4934996;29;20043;-77
2023/08/26 06:51:36;;;;;;;3.40;1.35;;;;;;;;;;4917623;29;20052;-77
2023/08/26 06:54:07;;;;;;;4.55;1.52;;;;;;;;;;4919992;29;20063;-77
2023/08/26 06:56:38;;;;;;;5.22;1.80;;;;;;;;;;4921166;29;20495;-78
2023/08/26 06:59:13;;;;;;;5.53;1.52;;;;;;;;;;4921125;29;20055;-76
2023/08/26 07:01:45;;;;;;;3.90;2.20;;;;;;;;;;4938701;29;20056;-78
2023/08/26 07:04:16;;;;;;;4.60;1.48;;;;;;;;;;4938586;29;20487;-77
2023/08/26 07:06:48;;;;;;;5.10;1.63;;;;;;;;;;4920959;29;20055;-77
2023/08/26 07:09:22;;;;;;;5.15;1.80;;;;;;;;;;4937686;29;20056;-77
2023/08/26 07:11:52;;;;;;;2.65;1.38;;;;;;;;;;4931308;29;20035;-77
2023/08/26 07:14:24;;;;;;;3.38;1.55;;;;;;;;;;4962387;29;20042;-77
2023/08/26 07:16:56;;;;;;;3.88;1.73;;;;;;;;;;4961569;29;20051;-77
2023/08/26 07:19:31;;;;;;;4.80;1.60;;;;;;;;;;4922511;29;20052;-78
2023/08/26 07:22:02;;;;;;;4.03;1.55;;;;;;;;;;4938031;29;20056;-78
2023/08/26 07:24:35;;;;;;;5.22;1.45;;;;;;;;;;4938470;29;20043;-78
2023/08/26 07:27:09;;;;;;;4.75;1.40;;;;;;;;;;4938238;29;20048;-78
2023/08/26 07:29:43;;;;;;;3.95;1.40;;;;;;;;;;4937210;29;20048;-79
2023/08/26 07:32:14;;;;;;;4.72;1.88;;;;;;;;;;4936909;29;20062;-78
2023/08/26 07:34:44;;;;;;;5.95;1.50;;;;;;;;;;4938258;29;20487;-77
2023/08/26 07:37:16;;;;;;;4.43;1.48;;;;;;;;;;4938108;29;20055;-78
2023/08/26 07:39:50;;;;;;;5.13;1.52;;;;;;;;;;4937966;29;20044;-77
2023/08/26 07:42:20;;;;;;;4.18;1.40;;;;;;;;;;4937964;29;20043;-77
2023/08/26 07:44:51;;;;;;;4.85;1.40;;;;;;;;;;4938283;29;20074;-78
2023/08/26 07:47:22;;;;;;;5.70;1.75;;;;;;;;;;4936501;29;20058;-77
2023/08/26 07:49:54;;;;;;;4.88;1.38;;;;;;;;;;4921597;29;20043;-76
2023/08/26 07:52:24;;;;;;;3.47;1.58;;;;;;;;;;4937700;29;20054;-76
2023/08/26 07:54:58;;;;;;;4.30;2.08;;;;;;;;;;4938361;29;20051;-76
2023/08/26 07:57:29;;;;;;;3.95;1.40;;;;;;;;;;4936420;29;20060;-76
2023/08/26 08:00:05;;;;;;;5.35;1.75;;;;;;;;;;4937622;29;20051;-77
2023/08/26 08:02:42;;;;;;;5.75;1.73;;;;;;;;;;4922044;29;20502;-76
2023/08/26 08:05:14;;;;;;;4.95;1.35;;;;;;;;;;4936408;29;20059;-77
2023/08/26 08:07:47;;;;;;;3.20;1.30;;;;;;;;;;4920742;29;20043;-76
2023/08/26 08:10:20;;;;;;;5.63;1.75;;;;;;;;;;4937691;29;20043;-76
2023/08/26 08:12:50;;;;;;;6.75;1.50;;;;;;;;;;4937453;29;20056;-78
2023/08/26 08:15:23;;;;;;;3.70;1.40;;;;;;;;;;4936985;29;20044;-77
2023/08/26 08:17:54;;;;;;;10.75;1.67;;;;;;;;;;4937643;29;20055;-77
2023/08/26 08:20:26;;;;;;;7.53;1.52;;;;;;;;;;4937211;29;20506;-78
2023/08/26 08:22:58;;;;;;;6.30;1.77;;;;;;;;;;4937063;29;20059;-78
2023/08/26 08:25:29;;;;;;;8.55;1.70;;;;;;;;;;4937312;29;20048;-78
2023/08/26 08:28:02;;;;;;;4.22;1.40;;;;;;;;;;4919565;29;20063;-78
2023/08/26 08:30:37;;;;;;;5.57;2.03;;;;;;;;;;4935854;29;20047;-77
2023/08/26 08:33:08;;;;;;;7.88;2.15;;;;;;;;;;4937021;29;20364;-77
2023/08/26 08:35:39;;;;;;;5.65;1.50;;;;;;;;;;4937194;29;20063;-77
2023/08/26 08:38:09;;;;;;;8.55;1.60;;;;;;;;;;4937011;29;20364;-77
2023/08/26 08:40:44;;;;;;;4.38;1.50;;;;;;;;;;4937034;29;20113;-78
2023/08/26 08:43:18;;;;;;;;;;;;;;;;;;4937624;29;20044;-77
2023/08/26 08:45:53;;;;;;;4.22;1.65;;;;;;;;;;4936877;29;19931;-76
2023/08/26 08:48:23;;;;;;;6.20;1.55;;;;;;;;;;4936463;29;20043;-76
2023/08/26 08:51:01;;;;;;;4.60;1.50;;;;;;;;;;4935797;29;20055;-77
2023/08/26 08:53:41;;;;;;;5.63;1.70;;;;;;;;;;4936784;29;20426;-78
2023/08/26 08:56:16;;;;;;;5.45;2.15;;;;;;;;;;4935172;29;20056;-78
2023/08/26 08:58:51;;;;;;;5.82;2.20;;;;;;;;;;4936331;29;20058;-78
2023/08/26 09:01:25;;;;;;;6.05;2.40;;;;;;;;;;4918667;29;20048;-78
2023/08/26 09:03:59;;;;;;;5.53;2.00;;;;;;;;;;4918966;29;20051;-78
2023/08/26 09:06:30;;;;;;;5.43;1.83;;;;;;;;;;4935455;29;20479;-78
2023/08/26 09:09:01;;;;;;;7.10;1.92;;;;;;;;;;4934856;29;20047;-78
2023/08/26 09:11:35;;;;;;;6.88;1.95;;;;;;;;;;4918576;29;20056;-78
2023/08/26 09:14:09;;;;;;;4.50;2.17;;;;;;;;;;4936459;29;20054;-77
2023/08/26 09:16:42;;;;;;;7.35;2.15;;;;;;;;;;4935561;29;20060;-76
2023/08/26 09:19:13;;;;;;;4.25;2.10;;;;;;;;;;4936407;29;20044;-77
2023/08/26 09:21:47;;;;;;;5.07;1.92;;;;;;;;;;4934347;29;20059;-77
2023/08/26 09:24:20;;;;;;;;;;;;;;;;;;4935621;29;20058;-77
2023/08/26 09:27:00;;;;;;;3.88;1.90;;;;;;;;;;4934933;29;19942;-78
2023/08/26 09:29:33;;;;;;;4.88;2.13;;;;;;;;;;4920074;29;20054;-77
2023/08/26 09:32:04;;;;;;;6.35;1.77;;;;;;;;;;4936178;29;20052;-77
2023/08/26 09:34:37;;;;;;;6.55;1.70;;;;;;;;;;4936034;29;20052;-77
2023/08/26 09:37:08;;;;;;;3.80;1.65;;;;;;;;;;4936402;29;20112;-77
2023/08/26 09:39:46;;;;;;;6.57;1.83;;;;;;;;;;4935903;29;20074;-77
2023/08/26 09:42:20;;;;;;;5.55;1.90;;;;;;;;;;4934760;29;20047;-77
2023/08/26 09:44:56;;;;;;;5.72;1.67;;;;;;;;;;4935701;29;20047;-78
2023/08/26 09:47:36;;;;;;;7.55;2.10;;;;;;;;;;4947064;29;20047;-76
2023/08/26 09:50:08;;;;;;;6.25;1.92;;;;;;;;;;4950831;29;20047;-77
2023/08/26 09:52:49;;;;;;;8.38;2.40;;;;;;;;;;4952545;29;20040;-77
2023/08/26 09:55:23;;;;;;;6.55;1.85;;;;;;;;;;4949959;29;20058;-77
2023/08/26 09:57:53;;;;;;;6.30;2.38;;;;;;;;;;4953092;29;20495;-77
2023/08/26 10:00:24;;;;;;;5.32;1.98;;;;;;;;;;4934058;29;20056;-77
2023/08/26 10:03:02;;;;;;;5.60;2.08;;;;;;;;;;4953751;29;20490;-78
2023/08/26 10:05:38;;;;;;;5.43;1.98;;;;;;;;;;4954776;29;20070;-77
2023/08/26 10:08:10;;;;;;;12.13;2.78;;;;;;;;;;4955325;29;20051;-77
2023/08/26 10:10:52;;;;;;;5.65;2.10;;;;;;;;;;4954704;29;20507;-77
2023/08/26 10:13:26;;;;;;;7.95;2.33;;;;;;;;;;4954668;29;20395;-76
2023/08/26 10:16:00;;;;;;;5.00;2.33;;;;;;;;;;4954750;29;20046;-77
2023/08/26 10:18:33;;;;;;;9.18;2.20;;;;;;;;;;4954955;29;20478;-78
2023/08/26 10:21:04;;;;;;;8.85;2.20;;;;;;;;;;4954485;29;20046;-77
2023/08/26 10:23:37;;;;;;;7.40;2.50;;;;;;;;;;4954482;29;20054;-77
2023/08/26 10:26:09;;;;;;;6.10;2.20;;;;;;;;;;4954745;29;20051;-77
2023/08/26 10:28:42;;;;;;;5.10;1.98;;;;;;;;;;4956094;28;20047;-78
2023/08/26 10:31:14;;;;;;;9.35;2.53;;;;;;;;;;4946470;29;20039;-78
2023/08/26 10:34:03;;;;;;;5.30;2.13;;;;;;;;;;4937915;29;20047;-78
2023/08/26 10:36:41;;;;;;;5.82;2.35;;;;;;;;;;4938933;29;20403;-77
2023/08/26 10:39:18;;;;;;;4.93;2.08;;;;;;;;;;4945005;29;20039;-77
2023/08/26 10:42:18;;;;;;;4.95;2.00;;;;;;;;;;4949992;29;20074;-76
2023/08/26 10:44:56;;;;;;;6.15;2.25;;;;;;;;;;4944561;29;20047;-76
2023/08/26 10:47:39;;;;;;;7.88;2.17;;;;;;;;;;4920644;29;20391;-76
2023/08/26 10:50:20;;;;;;;6.32;2.55;;;;;;;;;;4946425;29;20054;-78
2023/08/26 10:52:53;;;;;;;7.25;2.30;;;;;;;;;;4943913;29;20414;-77
2023/08/26 10:55:33;;;;;;;6.50;2.53;;;;;;;;;;4946109;29;20036;-79
2023/08/26 10:58:19;;;;;;;6.78;1.80;;;;;;;;;;4931801;29;20043;-78
2023/08/26 11:00:52;;;;;;;11.20;2.90;;;;;;;;;;4947645;29;20047;-79
2023/08/26 11:03:24;;;;;;;9.30;4.03;;;;;;;;;;4942284;29;20046;-77
2023/08/26 11:06:06;;;;;;;9.77;4.03;;;;;;;;;;4938788;29;20050;-77
2023/08/26 11:08:51;;;;;;;9.82;3.65;;;;;;;;;;4938924;29;20498;-78
2023/08/26 11:11:25;;;;;;;9.90;3.50;;;;;;;;;;4929163;29;20036;-76
2023/08/26 11:13:55;;;;;;;7.50;2.88;;;;;;;;;;4965935;29;20044;-75
2023/08/26 11:16:29;;;;;;;7.03;2.90;;;;;;;;;;4955894;29;20035;-78
2023/08/26 11:19:01;;;;;;;9.30;3.13;;;;;;;;;;4937975;29;20051;-79
2023/08/26 11:21:37;;;;;;;6.70;2.25;;;;;;;;;;4940557;29;20058;-78
2023/08/26 11:24:08;;;;;;;5.22;2.10;;;;;;;;;;4930786;29;20055;-77
2023/08/26 11:26:52;;;;;;;5.97;2.30;;;;;;;;;;4946078;29;20043;-78
2023/08/26 11:29:23;;;;;;;8.02;2.17;;;;;;;;;;4946095;29;20044;-78
2023/08/26 11:31:54;;;;;;;4.60;1.73;;;;;;;;;;4945464;29;20430;-79
2023/08/26 11:34:27;;;;;;;3.78;1.60;;;;;;;;;;4945907;29;20040;-78
2023/08/26 11:36:58;;;;;;;2.78;0.95;;;;;;;;;;4947290;29;20043;-78
2023/08/26 11:39:31;;;;;;;3.08;1.23;;;;;;;;;;4944345;29;20051;-78
2023/08/26 11:42:14;;;;;;;7.82;1.95;;;;;;;;;;4926283;29;20058;-78
2023/08/26 11:44:47;;;;;;;10.77;1.80;;;;;;;;;;4942136;29;20039;-78
2023/08/26 11:47:19;;;;;;;4.50;1.63;;;;;;;;;;4945768;29;20047;-78
2023/08/26 11:49:55;;;;;;;4.82;1.50;;;;;;;;;;4951403;29;20043;-79
2023/08/26 11:52:38;;;;;;;9.20;3.78;;;;;;;;;;4957116;29;20050;-78
2023/08/26 11:55:10;;;;;;;3.17;1.27;;;;;;;;;;4939079;29;20455;-80
2023/08/26 11:57:45;;;;;;;10.32;2.42;;;;;;;;;;4956532;29;20058;-78
2023/08/26 12:00:18;;;;;;;6.78;2.60;;;;;;;;;;4938844;29;20047;-79
2023/08/26 12:02:53;;;;;;;9.43;1.63;;;;;;;;;;4928337;29;20051;-78
2023/08/26 12:05:23;;;;;;;6.32;1.90;;;;;;;;;;4951061;29;20054;-78
2023/08/26 12:07:57;;;;;;;6.70;1.77;;;;;;;;;;4955597;29;20058;-78
2023/08/26 12:10:30;;;;;;;5.28;2.45;;;;;;;;;;4944415;29;20047;-79
2023/08/26 12:13:03;;;;;;;;;;;;;;;;;;4941658;29;20043;-78
2023/08/26 12:15:40;;;;;;;4.85;1.33;;;;;;;;;;4946490;29;19930;-79
2023/08/26 12:18:13;;;;;;;2.35;0.68;;;;;;;;;;4950566;29;20054;-80
2023/08/26 12:20:46;;;;;;;3.28;1.55;;;;;;;;;;4940058;29;20054;-77
2023/08/26 12:23:19;;;;;;;2.90;1.02;;;;;;;;;;4952248;29;20081;-77
2023/08/26 12:25:50;;;;;;;4.13;1.08;;;;;;;;;;4955547;29;20051;-79
2023/08/26 12:28:28;;;;;;;1.42;0.63;;;;;;;;;;4950960;29;20050;-81
2023/08/26 12:31:00;;;;;;;2.55;0.60;;;;;;;;;;4940580;29;20053;-78
2023/08/26 12:33:32;;;;;;;2.42;1.20;;;;;;;;;;4950671;29;20044;-79
2023/08/26 12:36:14;;;;;;;1.42;0.63;;;;;;;;;;4955407;29;20047;-78
2023/08/26 12:38:49;;;;;;;1.58;0.57;;;;;;;;;;4939472;29;20051;-78
2023/08/26 12:41:22;;;;;;;1.05;0.50;;;;;;;;;;4938322;29;20055;-78
2023/08/26 12:43:56;;;;;;;5.13;2.22;;;;;;;;;;4925784;29;20414;-78
2023/08/26 12:46:29;;;;;;;3.47;1.80;;;;;;;;;;4955409;29;20051;-79
2023/08/26 12:49:00;;;;;;;2.55;1.17;;;;;;;;;;4956312;29;20379;-80
2023/08/26 12:51:34;;;;;;;20.20;6.38;;;;;;;;;;4955104;28;20055;-77
2023/08/26 12:54:05;;;;;;;3.13;1.40;;;;;;;;;;4937625;29;20051;-78
2023/08/26 12:56:35;;;;;;;2.58;0.65;;;;;;;;;;4956221;29;20047;-79
2023/08/26 12:59:07;;;;;;;3.55;1.58;;;;;;;;;;4956321;29;20047;-80
2023/08/26 13:01:39;;;;;;;;;;;;;;;;;;4956005;29;20505;-79
2023/08/26 13:04:12;;;;;;;2.88;1.45;;;;;;;;;;4955616;29;19930;-80
2023/08/26 13:06:43;;;;;;;1.67;0.65;;;;;;;;;;4951388;29;20058;-81
2023/08/26 13:09:13;;;;;;;3.42;0.82;;;;;;;;;;4949443;29;20062;-79
2023/08/26 13:15:25;;;;;;;2.03;0.90;;;;;;;;;;4958938;28;20047;-80
2023/08/26 13:17:59;;;;;;;1.60;0.50;;;;;;;;;;4955825;29;20364;-79
2023/08/26 13:20:32;;;;;;;3.35;0.73;;;;;;;;;;4938858;29;20055;-80
2023/08/26 13:23:03;;;;;;;3.45;0.90;;;;;;;;;;4955967;28;20062;-79
2023/08/26 13:25:34;;;;;;;1.77;0.70;;;;;;;;;;4955467;28;20055;-81
2023/08/26 13:28:09;;;;;;;1.60;0.50;;;;;;;;;;4955960;28;20068;-79
2023/08/26 13:30:43;;;;;;;5.97;0.82;;;;;;;;;;4937800;29;20062;-81
2023/08/26 13:33:13;;;;;;;1.65;1.02;;;;;;;;;;4954417;28;20047;-80
2023/08/26 13:35:43;;;;;;;1.88;0.63;;;;;;;;;;4954868;29;20043;-81
2023/08/26 13:38:13;;;;;;;3.28;1.10;;;;;;;;;;4928947;29;20063;-79
2023/08/26 13:40:45;;;;;;;2.92;1.40;;;;;;;;;;4949201;29;20505;-81
2023/08/26 13:43:20;;;;;;;6.70;1.25;;;;;;;;;;4941020;29;20055;-80
2023/08/26 13:45:51;;;;;;;1.95;0.70;;;;;;;;;;4902928;29;20071;-80
2023/08/26 13:48:21;;;;;;;3.45;1.08;;;;;;;;;;4936317;29;20055;-79
2023/08/26 13:50:55;;;;;;;3.45;1.15;;;;;;;;;;4935676;29;20055;-79
2023/08/26 13:53:25;;;;;;;2.00;0.77;;;;;;;;;;4935969;29;20052;-80
2023/08/26 13:55:57;;;;;;;4.47;1.05;;;;;;;;;;4935976;29;20399;-81
2023/08/26 13:58:27;;;;;;;2.55;0.68;;;;;;;;;;4936588;29;20503;-81
2023/08/26 14:00:59;;;;;;;2.47;0.68;;;;;;;;;;4951544;29;20040;-81
2023/08/26 14:03:30;;;;;;;1.48;0.90;;;;;;;;;;4958432;28;20058;-82
2023/08/26 14:06:06;;;;;;;1.60;0.40;;;;;;;;;;4939810;29;20043;-82
2023/08/26 14:08:37;;;;;;;3.90;1.25;;;;;;;;;;4939632;29;20052;-83
2023/08/26 14:11:07;;;;;;;1.80;0.75;;;;;;;;;;4923190;29;20047;-82
2023/08/26 14:13:46;;;;;;;3.50;1.40;;;;;;;;;;4942086;29;20054;-81
2023/08/26 14:16:18;;;;;;;2.47;0.85;;;;;;;;;;4942532;29;20047;-82
2023/08/26 14:18:48;;;;;;;2.00;0.93;;;;;;;;;;4948888;29;20066;-79
2023/08/26 14:21:19;;;;;;;2.85;0.88;;;;;;;;;;4935359;29;20039;-81
2023/08/26 14:23:53;;;;;;;3.08;1.35;;;;;;;;;;4939603;29;20052;-81
2023/08/26 14:26:23;;;;;;;2.35;1.15;;;;;;;;;;4939620;29;20054;-82
2023/08/26 14:28:53;;;;;;;2.75;1.10;;;;;;;;;;4921873;29;20416;-81
2023/08/26 14:31:25;;;;;;;2.42;0.90;;;;;;;;;;4944066;29;20039;-82
2023/08/26 14:33:57;;;;;;;2.33;0.93;;;;;;;;;;4931248;29;20062;-81
2023/08/26 14:36:39;;;;;;;3.00;1.15;;;;;;;;;;4933544;29;20044;-83
2023/08/26 14:39:10;;;;;;;2.03;1.00;;;;;;;;;;4871765;29;20425;-80
2023/08/26 14:41:40;;;;;;;1.83;0.82;;;;;;;;;;4879270;29;20061;-80
2023/08/26 14:44:11;;;;;;;3.85;1.05;;;;;;;;;;4881379;29;20431;-81
2023/08/26 14:46:45;;;;;;;1.55;0.50;;;;;;;;;;4896440;29;20055;-81
2023/08/26 14:49:17;;;;;;;1.45;0.40;;;;;;;;;;4876030;29;20057;-81
2023/08/26 14:51:47;;;;;;;2.90;0.60;;;;;;;;;;4897844;29;20064;-82
2023/08/26 14:54:17;;;;;;;1.00;0.50;;;;;;;;;;4896583;29;20057;-80
2023/08/26 14:56:48;;;;;;;1.33;0.45;;;;;;;;;;4879619;29;20724;-81
2023/08/26 14:59:24;;;;;;;1.17;0.65;;;;;;;;;;4882441;29;20063;-82
2023/08/26 15:02:20;;;;;;;2.22;0.60;;;;;;;;;;4897370;29;20060;-81
2023/08/26 15:04:50;;;;;;;2.85;0.40;;;;;;;;;;4878895;29;20187;-82
2023/08/26 15:07:20;;;;;;;5.47;0.98;;;;;;;;;;4892731;29;20049;-82
2023/08/26 15:09:54;;;;;;;1.33;0.55;;;;;;;;;;4880946;29;20064;-81
2023/08/26 15:12:28;;;;;;;0.85;0.47;;;;;;;;;;4897218;29;20161;-82
2023/08/26 15:15:01;;;;;;;1.70;0.50;;;;;;;;;;4881354;29;20044;-82
2023/08/26 15:17:32;;;;;;;2.35;0.90;;;;;;;;;;4925981;29;20043;-81
2023/08/26 15:20:08;;;;;;;0.63;0.40;;;;;;;;;;4938292;29;20048;-82
2023/08/26 15:22:39;;;;;;;1.17;0.40;;;;;;;;;;4957643;29;20403;-82
2023/08/26 15:25:10;;;;;;;1.13;0.40;;;;;;;;;;4947519;29;20040;-82